Latest Weather Observations for Amberley

IDQ60901

Issued at 10:11 pm EST Saturday 26 November 2022 (issued every 10 minutes, with the page automatically refreshed every 10 minutes)

About weather observations | Map of Brisbane area stations | Latest observations for Brisbane area | Other Formats
Station Details ID: 040004 Name: AMBERLEY AMO Lat: -27.63 Lon: 152.71 Height: 24.2 m
Data from the previous 72 hours. | See also: Recent months at Amberley
Date/Time
EST
Temp
°C
App
Temp
°C
Dew
Point
°C
Rel
Hum
%
Delta-T
°C
Wind Press
QNH
hPa
Press
MSL
hPa
Rain since
9am
mm
Dir  Spd
km/h
Gust
km/h
Spd
kts
Gust
kts
26/10:00pm 21.1 19.9 17.1 78 2.4 E 19 26 10 14 1012.1 1012.0 0.0
26/09:30pm 21.5 20.8 17.3 77 2.6 ENE 17 26 9 14 1012.3 1012.2 0.0
26/09:00pm 21.8 20.7 17.2 75 2.8 E 19 26 10 14 1012.4 1012.3 0.0
26/08:30pm 22.1 20.6 16.8 72 3.2 E 20 28 11 15 1012.0 1011.9 0.0
26/08:00pm 22.4 19.9 17.1 72 3.3 E 26 35 14 19 1011.4 1011.3 0.0
26/07:30pm 22.9 20.9 17.4 71 3.4 E 24 32 13 17 1011.1 1011.0 0.0
26/07:00pm 23.2 21.8 17.0 68 3.8 E 20 30 11 16 1010.8 1010.7 0.0
26/06:30pm 23.8 21.4 16.3 63 4.6 E 24 33 13 18 1010.2 1010.1 0.0
26/06:00pm 24.8 21.4 15.7 57 5.5 ENE 28 41 15 22 1009.2 1009.1 0.0
26/05:36pm 25.5 22.0 16.4 57 5.6 ENE 30 48 16 26 1008.7 1008.6 0.0
26/05:30pm 25.7 21.7 16.3 56 5.8 ENE 32 48 17 26 1008.7 1008.6 0.0
26/05:00pm 26.5 22.5 16.1 52 6.4 ENE 32 43 17 23 1008.4 1008.3 0.0
26/04:30pm 27.3 22.9 16.6 52 6.6 ENE 35 44 19 24 1008.1 1008.0 0.0
26/04:00pm 28.3 22.9 15.9 47 7.7 E 39 48 21 26 1008.0 1007.9 0.0
26/03:30pm 28.7 24.7 16.6 48 7.6 ENE 33 48 18 26 1007.9 1007.8 0.0
26/03:00pm 30.7 26.3 15.2 39 9.6 E 32 44 17 24 1007.6 1007.5 0.0
26/02:45pm 32.2 30.0 13.4 32 11.3 SE 17 41 9 22 1007.5 1007.4 0.0
26/02:30pm 33.9 31.5 8.5 21 14.3 SE 11 20 6 11 1007.5 1007.4 0.0
26/02:00pm 33.8 31.9 10.4 24 13.6 ESE 11 17 6 9 1007.9 1007.8 0.0
26/01:30pm 33.9 30.7 7.0 19 14.8 SSE 13 24 7 13 1008.2 1008.1 0.0
26/01:00pm 33.1 31.2 10.4 25 13.1 SSW 11 24 6 13 1008.5 1008.4 0.0
26/12:30pm 32.7 31.8 11.3 27 12.5 NNE 7 11 4 6 1009.1 1009.0 0.0
26/12:00pm 32.5 31.2 11.1 27 12.5 ESE 9 19 5 10 1009.6 1009.5 0.0
26/11:30am 32.0 30.0 10.1 26 12.5 S 11 19 6 10 1010.1 1010.0 0.0
26/11:00am 31.5 29.1 10.2 27 12.2 SSW 13 22 7 12 1010.7 1010.6 0.0
26/10:30am 31.6 28.5 10.3 27 12.2 SSW 17 26 9 14 1011.2 1011.1 0.0
26/10:00am 30.1 29.0 12.1 33 10.5 WNW 9 15 5 8 1011.5 1011.4 0.0
26/09:30am 28.5 27.4 12.0 36 9.6 WNW 9 17 5 9 1012.0 1011.9 0.0
26/09:00am 27.3 26.7 13.6 43 8.1 NNW 9 15 5 8 1012.5 1012.4 0.0
26/08:30am 26.2 25.8 14.0 47 7.2 NW 9 13 5 7 1012.7 1012.6 0.0
26/08:00am 24.8 24.5 14.3 52 6.2 WNW 9 13 5 7 1013.0 1012.9 0.0
26/07:30am 22.9 22.8 13.9 57 5.3 W 7 11 4 6 1012.9 1012.8 0.0
26/07:00am 20.9 21.8 14.1 65 3.9 SSW 2 7 1 4 1013.0 1012.9 0.0
26/06:30am 17.6 19.0 14.5 82 1.8 CALM 0 0 0 0 1012.7 1012.6 0.0
26/06:00am 15.2 16.4 13.7 91 0.8 CALM 0 0 0 0 1012.5 1012.4 0.0
26/05:30am 13.5 13.2 12.6 94 0.5 SSW 6 7 3 4 1012.3 1012.2 0.0
26/05:00am 12.8 12.6 11.7 93 0.6 SSW 4 7 2 4 1012.1 1012.0 0.0
26/04:30am 13.0 13.6 11.9 93 0.6 CALM 0 0 0 0 1011.8 1011.7 0.0
26/04:00am 13.2 13.9 12.1 93 0.6 CALM 0 0 0 0 1011.7 1011.6 0.0
26/03:30am 13.4 14.0 12.0 91 0.8 CALM 0 0 0 0 1011.6 1011.5 0.0
26/03:00am 13.6 14.2 12.0 90 0.9 CALM 0 0 0 0 1011.5 1011.4 0.0
26/02:30am 14.4 15.2 12.6 89 1.0 CALM 0 6 0 3 1011.6 1011.5 0.0
26/02:00am 14.6 15.0 12.5 87 1.1 SSW 2 7 1 4 1011.8 1011.7 0.0
26/01:30am 15.1 16.0 12.8 86 1.3 CALM 0 0 0 0 1012.1 1012.0 0.0
26/01:00am 15.5 16.4 13.0 85 1.4 CALM 0 0 0 0 1012.3 1012.2 0.0
26/12:30am 16.2 17.2 13.3 83 1.6 CALM 0 0 0 0 1012.5 1012.4 0.0
26/12:00am 16.7 17.7 13.2 80 2.0 CALM 0 0 0 0 1012.8 1012.7 0.0
 
Date/Time
EST
Temp
°C
App
Temp
°C
Dew
Point
°C
Rel
Hum
%
Delta-T
°C
Wind Press
QNH
hPa
Press
MSL
hPa
Rain since
9am
mm
Dir  Spd
km/h
Gust
km/h
Spd
kts
Gust
kts
25/11:30pm 17.4 18.6 13.7 79 2.1 CALM 0 0 0 0 1013.1 1013.0 0.0
25/11:00pm 17.6 17.0 13.5 77 2.3 SSW 9 13 5 7 1013.4 1013.3 0.0
25/10:30pm 18.5 18.0 13.8 74 2.7 SW 9 11 5 6 1013.4 1013.3 0.0
25/10:00pm 20.2 19.3 13.6 66 3.8 SSW 11 13 6 7 1013.5 1013.4 0.0
25/09:30pm 20.0 19.4 13.5 66 3.7 ESE 9 11 5 6 1013.3 1013.2 0.0
25/09:00pm 22.2 21.2 13.5 57 5.0 E 11 15 6 8 1013.2 1013.1 0.0
25/08:30pm 23.3 21.7 13.8 55 5.5 E 15 20 8 11 1013.1 1013.0 0.0
25/08:00pm 24.1 22.0 13.6 52 6.1 E 17 24 9 13 1013.0 1012.9 0.0
25/07:30pm 24.8 22.5 13.0 47 6.8 E 17 24 9 13 1012.7 1012.6 0.0
25/07:00pm 25.8 22.8 11.9 42 8.0 E 19 26 10 14 1012.4 1012.3 0.0
25/06:30pm 26.4 21.9 11.3 39 8.6 ENE 26 33 14 18 1012.0 1011.9 0.0
25/06:00pm 27.3 23.2 11.3 37 9.1 ENE 24 35 13 19 1011.6 1011.5 0.0
25/05:30pm 28.5 23.7 11.6 35 9.7 ENE 28 39 15 21 1011.3 1011.2 0.0
25/05:00pm 29.9 25.3 12.3 33 10.3 E 28 39 15 21 1010.8 1010.7 0.0
25/04:52pm 30.3 25.7 12.2 32 10.6 ENE 28 37 15 20 1010.8 1010.7 0.0
25/04:30pm 33.5 31.4 6.7 19 14.6 S 7 13 4 7 1010.5 1010.4 0.0
25/04:00pm 32.6 29.3 8.1 22 13.6 W 15 30 8 16 1010.6 1010.5 0.0
25/03:30pm 33.1 27.9 5.6 18 14.7 NW 22 35 12 19 1010.9 1010.8 0.0
25/03:00pm 34.0 30.3 6.3 18 15.1 W 15 28 8 15 1011.2 1011.1 0.0
25/02:30pm 33.1 29.8 6.4 19 14.5 NNW 13 20 7 11 1011.6 1011.5 0.0
25/02:00pm 33.1 29.2 7.1 20 14.3 SW 17 30 9 16 1012.1 1012.0 0.0
25/01:30pm 32.5 29.7 8.7 23 13.3 N 13 19 7 10 1012.6 1012.5 0.0
25/01:00pm 32.4 30.1 10.4 26 12.7 N 13 19 7 10 1013.1 1013.0 0.0
25/12:30pm 31.4 29.0 10.2 27 12.1 NNE 13 22 7 12 1013.6 1013.5 0.0
25/12:00pm 31.3 29.6 11.1 29 11.7 WNW 11 24 6 13 1014.3 1014.2 0.0
25/11:30am 30.2 28.9 11.2 31 11.0 WNW 9 13 5 7 1014.8 1014.7 0.0
25/11:00am 30.1 29.2 13.8 37 9.8 ESE 11 15 6 8 1015.4 1015.3 0.0
25/10:30am 29.0 28.2 12.8 36 9.5 ESE 9 15 5 8 1016.0 1015.9 0.0
25/10:00am 27.9 27.2 13.1 40 8.7 ESE 9 13 5 7 1016.3 1016.2 0.0
25/09:30am 27.0 26.8 13.7 44 7.9 WSW 7 11 4 6 1016.7 1016.6 0.0
25/09:00am 25.8 26.3 14.9 51 6.5 NNW 6 11 3 6 1016.9 1016.8 0.0
25/08:30am 24.3 25.1 16.3 61 4.9 WSW 7 11 4 6 1017.1 1017.0 0.0
25/08:00am 23.0 24.0 16.8 68 3.8 NW 7 11 4 6 1017.3 1017.2 0.0
25/07:30am 20.8 21.8 16.4 76 2.7 NNW 6 9 3 5 1017.4 1017.3 0.0
25/07:00am 18.8 19.5 16.0 84 1.7 NW 7 11 4 6 1017.4 1017.3 0.0
25/06:30am 17.0 17.9 16.0 94 0.6 SE 6 7 3 4 1017.3 1017.2 0.0
25/06:00am 16.1 17.9 15.6 97 0.3 CALM 0 0 0 0 1017.1 1017.0 0.0
25/05:30am 14.3 14.2 13.8 97 0.3 SE 7 9 4 5 1016.8 1016.7 0.0
25/05:00am 13.2 12.7 12.6 96 0.3 SE 7 9 4 5 1016.3 1016.2 0.0
25/04:45am 12.9 13.6 12.3 96 0.3 CALM 0 0 0 0 1016.2 1016.1 0.0
25/04:30am 13.1 13.8 12.3 95 0.4 CALM 0 0 0 0 1016.1 1016.0 0.0
25/04:14am 13.6 14.5 13.0 96 0.3 CALM 0 0 0 0 1016.0 1015.9 0.0
25/04:10am 13.4 14.2 12.6 95 0.4 CALM 0 0 0 0 1016.0 1015.9 0.0
25/04:00am 13.5 14.3 12.7 95 0.4 CALM 0 0 0 0 1015.9 1015.8 0.0
25/03:56am 13.6 14.5 12.8 95 0.4 CALM 0 0 0 0 1015.9 1015.8 0.0
25/03:54am 13.8 14.7 13.0 95 0.4 CALM 0 0 0 0 1015.9 1015.8 0.0
25/03:30am 14.5 15.0 13.9 96 0.3 SE 4 7 2 4 1015.8 1015.7 0.0
25/03:15am 13.7 13.5 12.9 95 0.4 SE 6 9 3 5 1015.8 1015.7 0.0
25/03:00am 14.3 15.4 13.5 95 0.4 CALM 0 0 0 0 1015.8 1015.7 0.0
25/02:58am 13.9 14.9 13.1 95 0.4 CALM 0 0 0 0 1015.8 1015.7 0.0
25/02:53am 13.7 14.6 12.8 94 0.5 CALM 0 0 0 0 1015.8 1015.7 0.0
25/02:30am 14.8 16.1 14.0 95 0.5 CALM 0 0 0 0 1015.8 1015.7 0.0
25/02:12am 15.3 15.6 14.5 95 0.5 SE 6 7 3 4 1015.8 1015.7 0.0
25/02:01am 15.0 15.1 14.0 94 0.6 SE 6 7 3 4 1015.9 1015.8 0.0
25/02:00am 14.9 15.0 13.9 94 0.6 SE 6 7 3 4 1015.9 1015.8 0.0
25/01:56am 15.6 16.8 14.8 95 0.5 SE 2 7 1 4 1015.9 1015.8 0.0
25/01:30am 15.8 17.4 14.8 94 0.6 CALM 0 0 0 0 1016.0 1015.9 0.0
25/01:00am 16.3 16.9 15.2 93 0.6 SE 6 7 3 4 1016.1 1016.0 0.0
25/12:30am 16.9 17.6 15.6 92 0.8 SE 6 7 3 4 1016.1 1016.0 0.0
25/12:00am 17.3 18.5 16.0 92 0.8 SE 4 7 2 4 1016.3 1016.2 0.0
 
Date/Time
EST
Temp
°C
App
Temp
°C
Dew
Point
°C
Rel
Hum
%
Delta-T
°C
Wind Press
QNH
hPa
Press
MSL
hPa
Rain since
9am
mm
Dir  Spd
km/h
Gust
km/h
Spd
kts
Gust
kts
24/11:30pm 17.7 18.9 16.0 90 1.0 SE 4 7 2 4 1016.6 1016.5 0.0
24/11:00pm 19.1 19.8 16.0 82 1.8 SE 7 7 4 4 1016.6 1016.5 0.0
24/10:30pm 19.9 20.4 16.5 81 2.0 SE 9 11 5 6 1016.9 1016.8 0.0
24/10:00pm 20.4 21.0 16.8 80 2.2 SE 9 11 5 6 1016.8 1016.7 0.0
24/09:30pm 20.9 21.5 16.9 78 2.4 E 9 9 5 5 1016.9 1016.8 0.0
24/09:00pm 22.1 23.0 17.5 75 2.8 ENE 9 13 5 7 1016.7 1016.6 0.0
24/08:30pm 22.6 22.7 17.5 73 3.2 ENE 13 17 7 9 1016.6 1016.5 0.0
24/08:00pm 23.0 22.6 17.2 70 3.6 ENE 15 19 8 10 1016.4 1016.3 0.0
24/07:30pm 23.2 22.6 16.7 67 4.0 ENE 15 20 8 11 1015.9 1015.8 0.0
24/07:00pm 23.8 23.6 16.6 64 4.4 NE 13 19 7 10 1015.7 1015.6 0.0
24/06:30pm 24.2 23.2 16.5 62 4.7 NE 17 22 9 12 1015.3 1015.2 0.0
24/06:00pm 24.7 22.9 15.9 58 5.3 ENE 20 28 11 15 1015.0 1014.9 0.0
24/05:30pm 25.3 23.3 15.6 55 5.9 NE 20 30 11 16 1015.1 1015.0 0.0
24/05:00pm 25.9 23.2 15.6 53 6.3 ENE 24 32 13 17 1014.7 1014.6 0.0
24/04:30pm 27.3 25.5 13.3 42 8.3 NE 15 28 8 15 1014.4 1014.3 0.0
24/04:00pm 28.4 26.6 9.6 31 10.5 N 9 15 5 8 1014.3 1014.2 0.0
24/03:30pm 28.6 26.5 9.8 31 10.5 NNW 11 17 6 9 1014.5 1014.4 0.0
24/03:00pm 29.2 27.6 10.3 31 10.7 N 9 15 5 8 1014.5 1014.4 0.0
24/02:30pm 28.9 27.3 10.1 31 10.6 NNW 9 15 5 8 1014.7 1014.6 0.0
24/02:00pm 28.7 27.4 9.9 31 10.5 N 7 15 4 8 1014.9 1014.8 0.0
24/01:30pm 29.4 28.0 9.5 29 11.1 ENE 7 15 4 8 1015.1 1015.0 0.0
24/01:00pm 29.3 27.0 8.9 28 11.3 ENE 11 17 6 9 1015.8 1015.7 0.0
24/12:30pm 29.0 27.3 9.7 30 10.8 E 9 13 5 7 1016.1 1016.0 0.0
24/12:00pm 28.9 27.6 10.1 31 10.6 NE 7 15 4 8 1016.1 1016.0 0.0
24/11:30am 27.9 26.2 9.7 32 10.1 NNE 9 15 5 8 1016.2 1016.1 0.0
24/11:00am 27.3 25.4 9.2 32 10.0 ENE 9 13 5 7 1016.7 1016.6 0.0
24/10:30am 27.4 26.2 10.2 34 9.6 NNW 7 11 4 6 1016.9 1016.8 0.0
24/10:00am 26.3 24.9 9.6 35 9.2 WSW 7 11 4 6 1017.1 1017.0 0.0
24/09:30am 25.5 24.2 9.3 36 8.9 SSW 6 13 3 7 1017.0 1016.9 0.0
24/09:00am 24.2 22.8 9.4 39 8.0 NW 7 11 4 6 1016.8 1016.7 0.0
24/08:30am 23.4 21.8 8.7 39 7.9 WSW 7 9 4 5 1016.9 1016.8 0.0
24/08:00am 21.8 20.5 9.3 45 6.7 SW 6 9 3 5 1017.2 1017.1 0.0
24/07:30am 20.8 18.8 8.8 46 6.3 SSW 9 11 5 6 1016.8 1016.7 0.0
24/07:00am 17.9 16.0 9.0 56 4.6 SSW 9 11 5 6 1017.0 1016.9 0.0
24/06:30am 16.0 14.0 10.3 69 3.0 S 11 13 6 7 1016.4 1016.3 0.0
24/06:00am 14.7 13.7 11.1 79 1.9 WNW 7 9 4 5 1016.5 1016.4 0.0
24/05:30am 14.1 13.2 10.7 80 1.8 NW 6 7 3 4 1016.1 1016.0 0.0
24/05:00am 13.7 12.5 10.3 80 1.8 NW 7 9 4 5 1015.7 1015.6 0.0
24/04:30am 13.9 12.8 9.9 77 2.1 NW 6 7 3 4 1015.2 1015.1 0.0
24/04:00am 13.8 12.1 9.8 77 2.1 NW 9 13 5 7 1014.8 1014.7 0.0
24/03:30am 13.8 13.7 9.6 76 2.2 CALM 0 0 0 0 1014.9 1014.8 0.0
24/03:00am 14.1 12.7 8.9 71 2.6 NW 6 9 3 5 1015.0 1014.9 0.0
24/02:30am 14.4 12.9 8.6 68 2.9 NW 6 7 3 4 1014.8 1014.7 0.0
24/02:00am 14.3 12.4 9.1 71 2.6 NW 9 9 5 5 1014.7 1014.6 0.0
24/01:30am 14.7 14.7 9.7 72 2.6 CALM 0 0 0 0 1015.3 1015.2 0.0
24/01:00am 15.0 14.8 8.9 67 3.1 CALM 0 0 0 0 1015.3 1015.2 0.0
24/12:30am 16.1 15.4 6.8 54 4.6 CALM 0 0 0 0 1015.5 1015.4 0.0
24/12:00am 16.8 15.9 6.0 49 5.2 CALM 0 0 0 0 1015.5 1015.4 0.0
 
Date/Time
EST
Temp
°C
App
Temp
°C
Dew
Point
°C
Rel
Hum
%
Delta-T
°C
Wind Press
QNH
hPa
Press
MSL
hPa
Rain since
9am
mm
Dir  Spd
km/h
Gust
km/h
Spd
kts
Gust
kts
23/11:30pm 16.2 12.5 6.1 51 4.9 NNW 15 15 8 8 1015.7 1015.6 0.0
23/11:00pm 16.6 12.5 6.4 51 5.0 NW 17 19 9 10 1016.0 1015.9 0.0
23/10:30pm 17.1 13.3 6.0 48 5.4 NNW 15 19 8 10 1016.1 1016.0 0.0

Latest Capital City Observations: Canberra | Sydney | Melbourne | Brisbane | Adelaide | Perth | Hobart | Darwin

Other formats

Comma delimited format used in spreadsheet applications
http://www.bom.gov.au/fwo/IDQ60901/IDQ60901.94568.axf

JavaScript Object Notation format (JSON) in row-major order
http://www.bom.gov.au/fwo/IDQ60901/IDQ60901.94568.json

Data quality

Most of these data are generated automatically and are frequently updated. Quality checks on data are not normally performed. It is possible for incorrect values to appear. Refer to information at About Latest Weather Observations and please check the disclaimer before using these data.